createdAt,value
2023-07-26T00:02:10.245Z,14.80
2023-07-26T00:04:38.703Z,14.70
2023-07-26T00:07:06.992Z,14.80
2023-07-26T00:09:34.914Z,14.80
2023-07-26T00:12:02.819Z,14.80
2023-07-26T00:14:32.148Z,14.80
2023-07-26T00:16:59.986Z,14.80
2023-07-26T00:19:27.992Z,14.80
2023-07-26T00:21:55.874Z,14.80
2023-07-26T00:24:23.808Z,14.80
2023-07-26T00:26:51.793Z,14.80
2023-07-26T00:29:19.719Z,14.80
2023-07-26T00:31:48.979Z,14.80
2023-07-26T00:34:16.858Z,14.70
2023-07-26T00:36:44.788Z,14.70
2023-07-26T00:39:12.686Z,14.70
2023-07-26T00:41:40.587Z,14.70
2023-07-26T00:44:08.560Z,14.70
2023-07-26T00:46:36.744Z,14.60
2023-07-26T00:49:06.569Z,14.70
2023-07-26T00:51:35.398Z,14.70
2023-07-26T00:54:05.064Z,14.70
2023-07-26T00:56:33.292Z,14.70
2023-07-26T00:59:01.547Z,14.80
2023-07-26T01:01:29.588Z,14.80
2023-07-26T01:03:57.897Z,14.80
2023-07-26T01:06:32.067Z,14.80
2023-07-26T01:09:03.980Z,14.80
2023-07-26T01:11:37.580Z,14.80
2023-07-26T01:14:14.892Z,14.80
2023-07-26T01:16:43.808Z,14.90
2023-07-26T01:19:12.124Z,14.90
2023-07-26T01:21:41.431Z,14.80
2023-07-26T01:24:09.376Z,14.80
2023-07-26T01:26:37.288Z,14.70
2023-07-26T01:29:05.162Z,14.60
2023-07-26T01:31:33.206Z,14.60
2023-07-26T01:34:02.515Z,14.60
2023-07-26T01:36:31.113Z,14.50
2023-07-26T01:39:00.646Z,14.50
2023-07-26T01:41:30.132Z,14.40
2023-07-26T01:43:58.261Z,14.40
2023-07-26T01:46:26.183Z,14.40
2023-07-26T01:48:54.039Z,14.40
2023-07-26T01:51:21.902Z,14.30
2023-07-26T01:53:49.876Z,14.30
2023-07-26T01:56:19.890Z,14.30
2023-07-26T01:58:47.863Z,14.30
2023-07-26T02:01:15.802Z,14.30
2023-07-26T02:03:43.670Z,14.20
2023-07-26T02:06:11.601Z,14.20
2023-07-26T02:08:39.518Z,14.20
2023-07-26T02:11:07.409Z,14.10
2023-07-26T02:13:36.674Z,14.10
2023-07-26T02:16:04.730Z,14.00
2023-07-26T02:18:33.143Z,14.00
2023-07-26T02:21:01.019Z,14.00
2023-07-26T02:23:28.902Z,14.00
2023-07-26T02:25:56.816Z,13.90
2023-07-26T02:28:24.707Z,13.90
2023-07-26T02:30:53.931Z,13.80
2023-07-26T02:33:21.750Z,13.80
2023-07-26T02:35:49.783Z,13.70
2023-07-26T02:38:17.672Z,13.70
2023-07-26T02:40:45.586Z,13.70
2023-07-26T02:43:16.734Z,13.70
2023-07-26T02:45:49.292Z,13.70
2023-07-26T02:48:18.573Z,13.60
2023-07-26T02:50:46.496Z,13.60
2023-07-26T02:53:14.359Z,13.60
2023-07-26T02:55:42.367Z,13.50
2023-07-26T02:58:10.304Z,13.50
2023-07-26T03:00:38.271Z,13.40
2023-07-26T03:03:06.382Z,13.40
2023-07-26T03:05:37.780Z,13.30
2023-07-26T03:08:05.871Z,13.30
2023-07-26T03:10:34.701Z,13.20
2023-07-26T03:13:02.612Z,13.20
2023-07-26T03:15:31.356Z,13.20
2023-07-26T03:17:59.283Z,13.20
2023-07-26T03:20:27.185Z,13.20
2023-07-26T03:22:56.411Z,13.10
2023-07-26T03:25:24.302Z,13.10
2023-07-26T03:27:52.170Z,13.10
2023-07-26T03:30:20.019Z,13.00
2023-07-26T03:32:47.915Z,13.00
2023-07-26T03:35:16.236Z,13.00
2023-07-26T03:37:44.144Z,13.00
2023-07-26T03:40:14.032Z,13.00
2023-07-26T03:42:41.990Z,13.00
2023-07-26T03:45:10.253Z,13.00
2023-07-26T03:47:38.153Z,13.00
2023-07-26T03:50:06.497Z,13.00
2023-07-26T03:52:34.463Z,12.90
2023-07-26T03:55:02.377Z,12.90
2023-07-26T03:57:31.633Z,12.90
2023-07-26T03:59:59.537Z,12.90
2023-07-26T04:02:27.554Z,12.90
2023-07-26T04:04:55.552Z,12.80
2023-07-26T04:07:23.464Z,12.80
2023-07-26T04:09:51.459Z,12.80
2023-07-26T04:12:19.346Z,12.80
2023-07-26T04:14:48.785Z,12.70
2023-07-26T04:17:16.713Z,12.80
2023-07-26T04:19:44.605Z,12.70
2023-07-26T04:22:12.480Z,12.70
2023-07-26T04:24:43.060Z,12.70
2023-07-26T04:27:11.009Z,12.70
2023-07-26T04:29:38.914Z,12.70
2023-07-26T04:32:08.882Z,12.70
2023-07-26T04:34:36.837Z,12.70
2023-07-26T04:37:04.773Z,12.70
2023-07-26T04:39:32.694Z,12.70
2023-07-26T04:42:00.597Z,12.70
2023-07-26T04:44:28.541Z,12.70
2023-07-26T04:46:56.486Z,12.70
2023-07-26T04:49:25.823Z,12.70
2023-07-26T04:51:53.694Z,12.70
2023-07-26T04:54:21.605Z,12.70
2023-07-26T04:56:49.800Z,12.70
2023-07-26T04:59:17.737Z,12.70
2023-07-26T05:01:45.607Z,12.70
2023-07-26T05:04:13.578Z,12.80
2023-07-26T05:06:42.804Z,12.80
2023-07-26T05:09:10.699Z,12.80
2023-07-26T05:11:38.627Z,12.80
2023-07-26T05:14:06.544Z,12.80
2023-07-26T05:16:34.448Z,12.80
2023-07-26T05:19:02.495Z,12.80
2023-07-26T05:21:30.623Z,12.80
2023-07-26T05:24:00.094Z,12.80
2023-07-26T05:26:28.012Z,12.80
2023-07-26T05:28:55.943Z,12.80
2023-07-26T05:31:23.814Z,12.90
2023-07-26T05:33:51.749Z,12.90
2023-07-26T05:36:19.621Z,12.90
2023-07-26T05:38:47.504Z,13.00
2023-07-26T05:41:16.797Z,12.90
2023-07-26T05:43:44.676Z,13.00
2023-07-26T05:46:12.754Z,13.00
2023-07-26T05:48:40.737Z,13.10
2023-07-26T05:51:08.629Z,13.20
2023-07-26T05:53:37.860Z,13.20
2023-07-26T05:56:06.162Z,13.20
2023-07-26T05:58:35.442Z,13.30
2023-07-26T06:01:03.392Z,13.40
2023-07-26T06:03:31.271Z,13.40
2023-07-26T06:05:59.201Z,13.50
2023-07-26T06:08:27.140Z,13.50
2023-07-26T06:10:55.060Z,13.60
2023-07-26T06:13:22.992Z,13.70
2023-07-26T06:15:52.287Z,13.70
2023-07-26T06:18:20.968Z,13.70
2023-07-26T06:20:48.975Z,13.70
2023-07-26T06:23:16.862Z,13.80
2023-07-26T06:25:44.746Z,13.80
2023-07-26T06:28:12.626Z,13.90
2023-07-26T06:30:40.941Z,13.90
2023-07-26T06:33:10.266Z,14.00
2023-07-26T06:35:38.186Z,14.10
2023-07-26T06:38:06.155Z,14.10
2023-07-26T06:40:34.033Z,14.10
2023-07-26T06:43:01.896Z,14.20
2023-07-26T06:45:29.778Z,14.20
2023-07-26T06:47:57.756Z,14.30
2023-07-26T06:50:27.051Z,14.30
2023-07-26T06:52:55.908Z,14.30
2023-07-26T06:55:23.762Z,14.30
2023-07-26T06:57:53.899Z,14.30
2023-07-26T07:00:21.779Z,14.30
2023-07-26T07:02:49.697Z,14.30
2023-07-26T07:05:17.914Z,14.40
2023-07-26T07:07:47.142Z,14.40
2023-07-26T07:10:14.998Z,14.40
2023-07-26T07:12:42.915Z,14.50
2023-07-26T07:15:11.163Z,14.60
2023-07-26T07:17:39.214Z,14.70
2023-07-26T07:20:08.351Z,14.90
2023-07-26T07:22:36.643Z,15.00
2023-07-26T07:25:06.266Z,15.00
2023-07-26T07:27:34.224Z,15.00
2023-07-26T07:30:02.306Z,15.00
2023-07-26T07:32:30.360Z,15.00
2023-07-26T07:34:58.601Z,15.10
2023-07-26T07:37:28.413Z,15.00
2023-07-26T07:39:56.306Z,15.00
2023-07-26T07:42:25.576Z,15.00
2023-07-26T07:44:53.480Z,15.00
2023-07-26T07:47:21.545Z,15.00
2023-07-26T07:49:49.513Z,15.00
2023-07-26T07:52:17.430Z,15.00
2023-07-26T07:54:45.368Z,15.10
2023-07-26T07:57:13.751Z,15.10
2023-07-26T07:59:43.012Z,15.30
2023-07-26T08:02:10.941Z,15.40
2023-07-26T08:04:39.507Z,15.50
2023-07-26T08:07:07.536Z,15.50
2023-07-26T08:09:36.019Z,15.60
2023-07-26T08:12:04.126Z,15.80
2023-07-26T08:14:31.993Z,16.00
2023-07-26T08:17:01.319Z,16.30
2023-07-26T08:19:29.344Z,16.80
2023-07-26T08:21:57.308Z,17.20
2023-07-26T08:24:25.941Z,17.40
2023-07-26T08:26:54.620Z,17.30
2023-07-26T08:29:22.570Z,17.40
2023-07-26T08:31:50.590Z,17.30
2023-07-26T08:34:19.839Z,17.30
2023-07-26T08:36:47.701Z,17.30
2023-07-26T08:39:30.043Z,17.20
2023-07-26T08:42:03.087Z,17.30
2023-07-26T08:44:31.975Z,17.20
2023-07-26T08:47:01.549Z,17.20
2023-07-26T08:49:31.012Z,17.20
2023-07-26T08:51:59.897Z,17.20
2023-07-26T08:54:27.859Z,17.20
2023-07-26T08:56:55.972Z,17.10
2023-07-26T08:59:23.910Z,17.20
2023-07-26T09:02:02.097Z,17.20
2023-07-26T09:04:33.163Z,17.30
2023-07-26T09:07:02.456Z,17.60
2023-07-26T09:09:30.523Z,17.90
2023-07-26T09:11:58.391Z,18.20
2023-07-26T09:14:28.434Z,18.50
2023-07-26T09:16:56.570Z,18.70
2023-07-26T09:19:28.912Z,18.90
2023-07-26T09:22:00.353Z,19.20
2023-07-26T09:24:31.521Z,19.50
2023-07-26T09:27:04.486Z,19.40
2023-07-26T09:29:32.601Z,19.20
2023-07-26T09:32:00.991Z,19.30
2023-07-26T09:34:29.092Z,19.50
2023-07-26T09:36:58.110Z,19.80
2023-07-26T09:39:28.275Z,20.00
2023-07-26T09:42:04.519Z,20.10
2023-07-26T09:44:32.498Z,20.10
2023-07-26T09:47:00.731Z,20.00
2023-07-26T09:49:30.512Z,19.80
2023-07-26T09:54:35.398Z,19.60
2023-07-26T09:57:05.675Z,19.80
2023-07-26T09:59:36.104Z,19.90
2023-07-26T10:02:04.912Z,20.00
2023-07-26T10:04:35.753Z,20.00
2023-07-26T10:07:05.433Z,20.40
2023-07-26T10:09:36.012Z,20.50
2023-07-26T10:12:04.409Z,20.40
2023-07-26T10:14:33.391Z,20.30
2023-07-26T10:17:02.007Z,20.20
2023-07-26T10:19:30.415Z,19.90
2023-07-26T10:21:58.713Z,19.70
2023-07-26T10:24:27.177Z,19.60
2023-07-26T10:26:57.151Z,19.50
2023-07-26T10:29:25.706Z,19.40
2023-07-26T10:32:02.087Z,19.10
2023-07-26T10:34:30.059Z,18.90
2023-07-26T10:36:58.030Z,18.70
2023-07-26T10:39:35.038Z,18.60
2023-07-26T10:42:05.430Z,18.50
2023-07-26T10:44:41.105Z,19.40
2023-07-26T10:47:09.058Z,20.20
2023-07-26T10:49:40.269Z,20.80
2023-07-26T10:52:08.642Z,21.70
2023-07-26T10:54:37.531Z,21.70
2023-07-26T10:57:15.349Z,21.30
2023-07-26T11:00:00.701Z,21.70
2023-07-26T11:02:45.669Z,22.40
2023-07-26T11:05:17.684Z,23.20
2023-07-26T11:07:56.102Z,23.90
2023-07-26T11:10:24.996Z,24.00
2023-07-26T11:13:07.280Z,24.30
2023-07-26T11:16:12.133Z,24.40
2023-07-26T11:18:24.066Z,23.90
2023-07-26T11:20:52.893Z,23.50
2023-07-26T11:23:21.999Z,23.20
2023-07-26T11:25:51.374Z,23.40
2023-07-26T11:28:20.879Z,23.90
2023-07-26T11:30:50.365Z,24.40
2023-07-26T11:33:27.330Z,24.60
2023-07-26T11:35:55.194Z,24.90
2023-07-26T11:38:23.100Z,25.60
2023-07-26T11:40:54.206Z,25.30
2023-07-26T11:43:23.659Z,25.40
2023-07-26T11:45:51.643Z,25.30
2023-07-26T11:48:20.478Z,24.80
2023-07-26T11:50:48.643Z,24.20
2023-07-26T11:53:25.068Z,23.80
2023-07-26T11:56:02.524Z,23.60
2023-07-26T11:58:35.637Z,23.30
2023-07-26T12:01:04.860Z,23.50
2023-07-26T12:03:33.398Z,24.00
2023-07-26T12:06:05.405Z,24.40
2023-07-26T12:08:36.547Z,24.40
2023-07-26T12:11:06.297Z,24.60
2023-07-26T12:13:36.733Z,25.00
2023-07-26T12:16:05.613Z,25.60
2023-07-26T12:18:34.101Z,26.10
2023-07-26T12:21:07.435Z,26.70
2023-07-26T12:23:51.813Z,26.70
2023-07-26T12:26:20.689Z,26.20
2023-07-26T12:28:50.223Z,25.60
2023-07-26T12:31:18.894Z,24.90
2023-07-26T12:34:00.066Z,24.40
2023-07-26T12:36:29.280Z,24.10
2023-07-26T12:38:57.397Z,23.80
2023-07-26T12:41:25.389Z,23.60
2023-07-26T12:43:57.053Z,23.50
2023-07-26T12:46:25.324Z,23.80
2023-07-26T12:48:55.340Z,24.90
2023-07-26T12:51:23.243Z,25.80
2023-07-26T12:53:51.204Z,26.60
2023-07-26T12:56:19.083Z,27.20
2023-07-26T12:59:04.604Z,27.00
2023-07-26T13:01:36.051Z,26.10
2023-07-26T13:04:04.776Z,25.40
2023-07-26T13:06:33.116Z,24.70
2023-07-26T13:09:01.416Z,24.10
2023-07-26T13:11:29.996Z,23.50
2023-07-26T13:13:59.147Z,22.90
2023-07-26T13:16:30.368Z,22.40
2023-07-26T13:19:00.875Z,22.00
2023-07-26T13:21:28.981Z,21.60
2023-07-26T13:23:57.190Z,21.20
2023-07-26T13:26:25.252Z,20.90
2023-07-26T13:28:53.270Z,20.80
2023-07-26T13:31:21.281Z,21.50
2023-07-26T13:33:50.966Z,22.30
2023-07-26T13:36:22.454Z,22.80
2023-07-26T13:38:50.411Z,22.80
2023-07-26T13:41:18.464Z,22.50
2023-07-26T13:43:46.514Z,22.10
2023-07-26T13:48:45.317Z,21.40
2023-07-26T13:51:13.301Z,21.00
2023-07-26T13:53:42.492Z,20.70
2023-07-26T13:56:10.416Z,20.40
2023-07-26T13:58:38.318Z,20.00
2023-07-26T14:01:06.325Z,19.70
2023-07-26T14:03:34.268Z,19.40
2023-07-26T14:06:02.175Z,19.10
2023-07-26T14:08:30.161Z,18.90
2023-07-26T14:10:59.454Z,18.60
2023-07-26T14:13:27.459Z,18.40
2023-07-26T14:16:00.897Z,18.10
2023-07-26T14:18:39.604Z,17.80
2023-07-26T14:21:07.551Z,17.60
2023-07-26T14:23:36.121Z,17.40
2023-07-26T14:26:05.397Z,17.20
2023-07-26T14:28:33.317Z,17.00
2023-07-26T14:31:01.310Z,16.90
2023-07-26T14:33:29.346Z,16.90
2023-07-26T14:35:57.333Z,16.80
2023-07-26T14:38:25.335Z,17.00
2023-07-26T14:40:53.301Z,17.30
2023-07-26T14:43:22.560Z,17.40
2023-07-26T14:45:50.562Z,17.50
2023-07-26T14:48:19.191Z,17.40
2023-07-26T14:50:47.215Z,17.30
2023-07-26T14:53:15.124Z,17.20
2023-07-26T14:55:43.282Z,17.20
2023-07-26T14:58:11.209Z,17.10
2023-07-26T15:00:40.526Z,16.90
2023-07-26T15:03:08.634Z,16.80
2023-07-26T15:05:38.435Z,16.70
2023-07-26T15:08:06.922Z,16.60
2023-07-26T15:10:34.802Z,16.50
2023-07-26T15:13:02.693Z,16.50
2023-07-26T15:15:30.579Z,16.60
2023-07-26T15:18:00.442Z,16.70
2023-07-26T15:20:28.352Z,16.80
2023-07-26T15:22:56.251Z,17.20
2023-07-26T15:25:24.158Z,17.70
2023-07-26T15:27:52.201Z,18.00
2023-07-26T15:30:20.180Z,18.10
2023-07-26T15:32:48.261Z,18.30
2023-07-26T15:35:17.515Z,18.70
2023-07-26T15:37:47.539Z,18.80
2023-07-26T15:40:25.523Z,18.80
2023-07-26T15:45:24.868Z,18.60
2023-07-26T15:47:52.843Z,18.30
2023-07-26T15:50:28.928Z,18.10
2023-07-26T15:52:57.192Z,17.80
2023-07-26T15:55:25.128Z,17.60
2023-07-26T15:57:53.311Z,17.40
2023-07-26T16:00:21.294Z,17.20
2023-07-26T16:10:23.555Z,16.50
2023-07-26T16:12:51.453Z,16.40
2023-07-26T16:20:21.429Z,16.20
2023-07-26T16:22:49.330Z,16.20
2023-07-26T16:25:18.562Z,16.10
2023-07-26T16:27:46.519Z,16.20
2023-07-26T16:30:14.537Z,16.10
2023-07-26T16:32:42.510Z,16.10
2023-07-26T16:35:10.584Z,16.00
2023-07-26T16:37:38.504Z,15.90
2023-07-26T16:40:07.091Z,15.90
2023-07-26T16:42:36.311Z,15.90
2023-07-26T16:45:04.310Z,16.00
2023-07-26T16:47:35.312Z,15.90
2023-07-26T16:50:03.394Z,15.90
2023-07-26T16:52:31.660Z,15.90
2023-07-26T16:54:59.711Z,16.00
2023-07-26T16:57:27.752Z,16.10
2023-07-26T16:59:57.040Z,16.10
2023-07-26T17:02:25.262Z,16.10
2023-07-26T17:04:53.474Z,16.10
2023-07-26T17:07:21.364Z,16.10
2023-07-26T17:09:49.301Z,16.00
2023-07-26T17:12:17.257Z,15.90
2023-07-26T17:14:45.184Z,15.80
2023-07-26T17:17:14.496Z,15.80
2023-07-26T17:19:42.409Z,15.70
2023-07-26T17:22:10.356Z,15.70
2023-07-26T17:24:38.329Z,15.50
2023-07-26T17:27:06.887Z,15.50
2023-07-26T17:29:37.443Z,15.50
2023-07-26T17:32:05.692Z,15.50
2023-07-26T17:34:35.396Z,15.40
2023-07-26T17:37:03.283Z,15.40
2023-07-26T17:39:31.363Z,15.40
2023-07-26T17:41:59.298Z,15.30
2023-07-26T17:44:27.221Z,15.20
2023-07-26T17:46:55.120Z,15.20
2023-07-26T17:49:23.080Z,15.10
2023-07-26T17:51:52.478Z,15.00
2023-07-26T17:54:20.722Z,15.00
2023-07-26T17:56:50.976Z,14.90
2023-07-26T17:59:20.205Z,14.90
2023-07-26T18:01:48.144Z,14.80
2023-07-26T18:04:16.016Z,14.70
2023-07-26T18:06:44.144Z,14.60
2023-07-26T18:09:14.084Z,14.50
2023-07-26T18:11:42.026Z,14.40
2023-07-26T18:14:10.259Z,14.40
2023-07-26T18:16:39.021Z,14.30
2023-07-26T18:19:06.912Z,14.30
2023-07-26T18:21:35.140Z,14.20
2023-07-26T18:24:03.877Z,14.10
2023-07-26T18:26:33.258Z,14.00
2023-07-26T18:29:01.203Z,13.90
2023-07-26T18:31:33.459Z,13.80
2023-07-26T18:34:01.458Z,13.70
2023-07-26T18:36:29.446Z,13.70
2023-07-26T18:38:58.502Z,13.60
2023-07-26T18:41:26.426Z,13.50
2023-07-26T18:43:55.719Z,13.40
2023-07-26T18:46:24.497Z,13.30
2023-07-26T18:48:52.659Z,13.30
2023-07-26T18:51:20.640Z,13.20
2023-07-26T18:53:48.554Z,13.10
2023-07-26T18:56:16.460Z,13.10
2023-07-26T18:58:44.906Z,13.00
2023-07-26T19:01:14.970Z,12.90
2023-07-26T19:03:43.176Z,12.80
2023-07-26T19:06:11.074Z,12.70
2023-07-26T19:08:39.757Z,12.70
2023-07-26T19:11:07.658Z,12.60
2023-07-26T19:13:35.556Z,12.50
2023-07-26T19:16:03.465Z,12.50
2023-07-26T19:18:32.750Z,12.50
2023-07-26T19:21:01.237Z,12.40
2023-07-26T19:23:29.165Z,12.40
2023-07-26T19:25:57.077Z,12.40
2023-07-26T19:28:25.101Z,12.40
2023-07-26T19:30:53.185Z,12.30
2023-07-26T19:33:21.176Z,12.30
2023-07-26T19:35:56.426Z,12.20
2023-07-26T19:38:25.116Z,12.20
2023-07-26T19:41:05.779Z,12.10
2023-07-26T19:43:35.107Z,12.10
2023-07-26T19:46:04.183Z,12.00
2023-07-26T19:48:32.137Z,12.00
2023-07-26T19:51:01.539Z,12.00
2023-07-26T19:53:29.436Z,12.00
2023-07-26T19:55:57.442Z,11.90
2023-07-26T19:58:25.486Z,11.90
2023-07-26T20:00:54.985Z,11.90
2023-07-26T20:03:22.954Z,11.80
2023-07-26T20:05:54.085Z,11.90
2023-07-26T20:08:24.523Z,11.80
2023-07-26T20:10:52.729Z,11.80
2023-07-26T20:13:20.726Z,11.70
2023-07-26T20:15:48.645Z,11.70
2023-07-26T20:18:16.757Z,11.60
2023-07-26T20:20:45.238Z,11.60
2023-07-26T20:23:13.138Z,11.60
2023-07-26T20:25:43.542Z,11.50
2023-07-26T20:28:12.235Z,11.40
2023-07-26T20:30:40.234Z,11.40
2023-07-26T20:33:08.274Z,11.40
2023-07-26T20:35:36.175Z,11.30
2023-07-26T20:38:04.087Z,11.20
2023-07-26T20:40:32.007Z,11.20
2023-07-26T20:43:01.285Z,11.20
2023-07-26T20:45:29.184Z,11.30
2023-07-26T20:47:57.152Z,11.30
2023-07-26T20:50:26.529Z,11.30
2023-07-26T20:52:54.485Z,11.20
2023-07-26T20:55:22.403Z,11.20
2023-07-26T20:57:50.293Z,11.20
2023-07-26T21:00:19.605Z,11.20
2023-07-26T21:02:48.101Z,11.20
2023-07-26T21:05:16.410Z,11.10
2023-07-26T21:07:44.445Z,11.10
2023-07-26T21:10:12.356Z,11.10
2023-07-26T21:12:40.242Z,11.10
2023-07-26T21:15:08.609Z,11.10
2023-07-26T21:17:37.987Z,11.10
2023-07-26T21:20:06.278Z,11.10
2023-07-26T21:22:34.230Z,11.00
2023-07-26T21:25:02.259Z,11.00
2023-07-26T21:27:30.194Z,11.00
2023-07-26T21:29:58.247Z,11.00
2023-07-26T21:32:26.204Z,11.00
2023-07-26T21:34:55.444Z,10.90
2023-07-26T21:37:23.452Z,10.90
2023-07-26T21:39:51.305Z,10.90
2023-07-26T21:42:19.249Z,11.00
2023-07-26T21:44:47.147Z,10.90
2023-07-26T21:47:15.059Z,10.90
2023-07-26T21:49:42.991Z,10.90
2023-07-26T21:52:12.280Z,10.90
2023-07-26T21:54:40.159Z,10.90
2023-07-26T21:57:08.247Z,10.90
2023-07-26T21:59:36.153Z,10.90
2023-07-26T22:02:04.181Z,11.00
2023-07-26T22:04:32.194Z,11.00
2023-07-26T22:07:00.150Z,11.00
2023-07-26T22:09:29.413Z,11.00
2023-07-26T22:11:57.327Z,11.00
2023-07-26T22:14:25.253Z,11.00
2023-07-26T22:16:53.122Z,10.90
2023-07-26T22:19:21.003Z,11.00
2023-07-26T22:21:48.948Z,10.90
2023-07-26T22:24:16.958Z,10.90
2023-07-26T22:26:48.273Z,10.90
2023-07-26T22:29:16.196Z,10.90
2023-07-26T22:31:44.339Z,10.90
2023-07-26T22:34:12.244Z,10.90
2023-07-26T22:36:40.228Z,10.90
2023-07-26T22:39:08.211Z,10.90
2023-07-26T22:41:36.512Z,10.90
2023-07-26T22:44:06.263Z,10.80
2023-07-26T22:46:34.490Z,10.80
2023-07-26T22:49:02.722Z,10.80
2023-07-26T22:51:30.564Z,10.70
2023-07-26T22:53:58.467Z,10.70
2023-07-26T22:56:26.408Z,10.60
2023-07-26T22:58:54.312Z,10.60
2023-07-26T23:01:24.287Z,10.60
2023-07-26T23:03:52.485Z,10.50
2023-07-26T23:06:20.396Z,10.50
2023-07-26T23:08:48.312Z,10.50
2023-07-26T23:11:16.194Z,10.50
2023-07-26T23:13:44.156Z,10.60
2023-07-26T23:16:12.382Z,10.50
2023-07-26T23:18:41.925Z,10.50
2023-07-26T23:21:09.799Z,10.50
2023-07-26T23:23:37.698Z,10.50
2023-07-26T23:26:05.623Z,10.60
2023-07-26T23:28:33.493Z,10.60
2023-07-26T23:31:01.584Z,10.70
2023-07-26T23:33:29.472Z,10.70
2023-07-26T23:35:58.739Z,10.70
2023-07-26T23:38:26.681Z,10.70
2023-07-26T23:40:55.396Z,10.70
2023-07-26T23:43:23.312Z,10.80
2023-07-26T23:45:51.575Z,10.80
2023-07-26T23:48:20.990Z,10.70
2023-07-26T23:50:49.093Z,10.80
2023-07-26T23:53:18.397Z,10.80
2023-07-26T23:55:46.633Z,10.80
2023-07-26T23:58:15.410Z,10.70
